createdAt,value
2018-07-15T00:02:16.128Z,5.20
2018-07-15T00:04:46.541Z,5.23
2018-07-15T00:07:15.518Z,5.23
2018-07-15T00:09:44.470Z,5.00
2018-07-15T00:12:13.446Z,5.57
2018-07-15T00:14:42.424Z,5.20
2018-07-15T00:17:11.383Z,5.33
2018-07-15T00:19:40.325Z,4.80
2018-07-15T00:22:09.303Z,5.40
2018-07-15T00:24:38.253Z,4.97
2018-07-15T00:27:07.759Z,5.47
2018-07-15T00:29:36.719Z,5.27
2018-07-15T00:32:05.820Z,5.43
2018-07-15T00:34:34.782Z,5.30
2018-07-15T00:37:03.997Z,5.03
2018-07-15T00:39:32.978Z,5.13
2018-07-15T00:42:01.941Z,4.60
2018-07-15T00:44:31.337Z,4.73
2018-07-15T00:47:00.332Z,5.80
2018-07-15T00:49:29.298Z,5.00
2018-07-15T00:51:59.673Z,5.77
2018-07-15T00:54:28.643Z,5.17
2018-07-15T00:56:57.622Z,5.70
2018-07-15T00:59:26.577Z,5.27
2018-07-15T01:01:55.616Z,4.67
2018-07-15T01:04:24.608Z,5.27
2018-07-15T01:06:53.595Z,5.07
2018-07-15T01:09:22.609Z,5.47
2018-07-15T01:11:52.287Z,4.70
2018-07-15T01:14:21.729Z,4.87
2018-07-15T01:16:50.734Z,4.03
2018-07-15T01:19:19.686Z,3.90
2018-07-15T01:21:49.514Z,4.00
2018-07-15T01:24:18.476Z,4.70
2018-07-15T01:26:47.438Z,5.03
2018-07-15T01:29:16.428Z,4.30
2018-07-15T01:31:45.392Z,4.80
2018-07-15T01:34:14.375Z,5.70
2018-07-15T01:36:43.443Z,5.40
2018-07-15T01:39:12.405Z,5.90
2018-07-15T01:41:41.418Z,5.70
2018-07-15T01:44:10.368Z,5.83
2018-07-15T01:46:39.346Z,5.30
2018-07-15T01:49:08.394Z,4.47
2018-07-15T01:51:37.369Z,4.80
2018-07-15T01:54:06.404Z,4.13
2018-07-15T01:56:35.356Z,4.27
2018-07-15T01:59:04.325Z,3.87
2018-07-15T02:01:33.315Z,4.27
2018-07-15T02:04:02.278Z,3.83
2018-07-15T02:06:33.837Z,3.60
2018-07-15T02:09:02.851Z,4.10
2018-07-15T02:11:32.500Z,3.60
2018-07-15T02:14:01.891Z,3.40
2018-07-15T02:16:32.019Z,3.90
2018-07-15T02:19:04.628Z,3.83
2018-07-15T02:21:33.670Z,4.10
2018-07-15T02:24:02.657Z,3.93
2018-07-15T02:26:31.605Z,4.20
2018-07-15T02:29:00.570Z,4.70
2018-07-15T02:31:29.518Z,4.23
2018-07-15T02:33:58.493Z,4.80
2018-07-15T02:36:27.475Z,4.70
2018-07-15T02:38:56.444Z,5.03
2018-07-15T02:41:25.407Z,4.20
2018-07-15T02:43:54.371Z,4.63
2018-07-15T02:46:23.318Z,4.73
2018-07-15T02:48:52.277Z,4.30
2018-07-15T02:51:21.229Z,3.53
2018-07-15T02:53:55.088Z,4.10
2018-07-15T02:56:25.077Z,4.53
2018-07-15T02:58:54.057Z,5.07
2018-07-15T03:01:23.019Z,4.50
2018-07-15T03:03:51.714Z,4.70
2018-07-15T03:06:20.690Z,4.20
2018-07-15T03:08:49.386Z,5.03
2018-07-15T03:11:18.267Z,5.33
2018-07-15T03:13:47.270Z,5.67
2018-07-15T03:16:17.369Z,6.00
2018-07-15T03:18:47.017Z,5.37
2018-07-15T03:21:15.991Z,4.50
2018-07-15T03:23:44.954Z,4.97
2018-07-15T03:26:13.903Z,4.47
2018-07-15T03:28:42.887Z,4.10
2018-07-15T03:31:11.865Z,4.10
2018-07-15T03:33:41.412Z,4.67
2018-07-15T03:36:10.390Z,4.70
2018-07-15T03:38:39.397Z,4.57
2018-07-15T03:41:08.386Z,5.20
2018-07-15T03:43:40.036Z,5.30
2018-07-15T03:46:09.816Z,4.90
2018-07-15T03:48:38.547Z,5.70
2018-07-15T03:51:07.431Z,5.13
2018-07-15T03:53:36.442Z,5.70
2018-07-15T03:56:06.072Z,5.97
2018-07-15T03:58:35.071Z,6.07
2018-07-15T04:01:07.796Z,5.40
2018-07-15T04:03:36.788Z,6.00
2018-07-15T04:06:05.767Z,5.60
2018-07-15T04:08:34.787Z,5.80
2018-07-15T04:11:03.909Z,6.10
2018-07-15T04:13:32.918Z,5.93
2018-07-15T04:16:01.915Z,4.80
2018-07-15T04:18:30.901Z,4.93
2018-07-15T04:20:59.872Z,5.80
2018-07-15T04:23:28.872Z,5.20
2018-07-15T04:25:57.827Z,4.63
2018-07-15T04:28:26.896Z,5.23
2018-07-15T04:30:55.976Z,5.30
2018-07-15T04:33:24.985Z,5.60
2018-07-15T04:35:53.948Z,5.77
2018-07-15T04:38:22.959Z,4.90
2018-07-15T04:40:51.933Z,5.90
2018-07-15T04:43:20.959Z,5.87
2018-07-15T04:45:49.942Z,5.93
2018-07-15T04:48:18.932Z,5.37
2018-07-15T04:50:48.309Z,5.50
2018-07-15T04:53:19.739Z,5.27
2018-07-15T04:55:48.795Z,5.53
2018-07-15T04:58:18.285Z,5.60
2018-07-15T05:00:47.246Z,5.70
2018-07-15T05:03:16.216Z,6.27
2018-07-15T05:05:45.838Z,5.10
2018-07-15T05:08:14.828Z,5.87
2018-07-15T05:10:43.848Z,6.77
2018-07-15T05:13:12.823Z,5.90
2018-07-15T05:15:41.855Z,6.60
2018-07-15T05:18:11.864Z,5.53
2018-07-15T05:20:40.896Z,5.57
2018-07-15T05:23:09.907Z,5.40
2018-07-15T05:25:38.912Z,5.97
2018-07-15T05:28:08.699Z,7.00
2018-07-15T05:30:37.691Z,6.00
2018-07-15T05:33:07.208Z,7.30
2018-07-15T05:35:36.698Z,7.33
2018-07-15T05:38:06.856Z,6.50
2018-07-15T05:40:35.879Z,7.00
2018-07-15T05:43:04.885Z,7.23
2018-07-15T05:45:33.948Z,5.93
2018-07-15T05:48:03.322Z,6.00
2018-07-15T05:50:33.382Z,7.35
2018-07-15T05:53:02.401Z,7.10
2018-07-15T05:55:31.475Z,7.03
2018-07-15T05:58:00.530Z,6.67
2018-07-15T06:00:29.455Z,6.53
2018-07-15T06:03:00.623Z,6.20
2018-07-15T06:05:30.299Z,5.70
2018-07-15T06:07:59.431Z,6.20
2018-07-15T06:10:28.475Z,7.20
2018-07-15T06:12:57.907Z,6.37
2018-07-15T06:15:26.941Z,7.20
2018-07-15T06:17:55.890Z,7.40
2018-07-15T06:20:25.443Z,5.90
2018-07-15T06:22:54.456Z,5.77
2018-07-15T06:25:23.491Z,7.03
2018-07-15T06:27:54.237Z,6.30
2018-07-15T06:30:23.222Z,6.63
2018-07-15T06:32:52.187Z,6.07
2018-07-15T06:35:21.939Z,7.40
2018-07-15T06:37:50.920Z,5.30
2018-07-15T06:40:19.921Z,6.07
2018-07-15T06:42:48.964Z,6.07
2018-07-15T06:45:17.956Z,5.50
2018-07-15T06:47:46.930Z,6.60
2018-07-15T06:50:16.553Z,5.70
2018-07-15T06:52:45.587Z,6.20
2018-07-15T06:55:14.606Z,5.87
2018-07-15T06:57:43.609Z,5.27
2018-07-15T07:00:12.648Z,5.37
2018-07-15T07:02:41.698Z,5.67
2018-07-15T07:05:12.675Z,5.20
2018-07-15T07:07:43.302Z,6.57
2018-07-15T07:10:12.950Z,5.50
2018-07-15T07:12:42.970Z,5.50
2018-07-15T07:15:12.052Z,5.73
2018-07-15T07:17:41.456Z,5.37
2018-07-15T07:20:10.447Z,6.73
2018-07-15T07:22:39.488Z,5.20
2018-07-15T07:25:08.507Z,5.27
2018-07-15T07:27:39.091Z,4.27
2018-07-15T07:30:08.123Z,4.77
2018-07-15T07:32:37.498Z,5.43
2018-07-15T07:35:06.594Z,5.20
2018-07-15T07:37:35.639Z,5.50
2018-07-15T07:40:04.856Z,5.67
2018-07-15T07:42:33.859Z,6.10
2018-07-15T07:45:03.328Z,6.07
2018-07-15T07:47:34.108Z,4.97
2018-07-15T07:50:12.638Z,4.67
2018-07-15T07:52:51.070Z,4.33
2018-07-15T07:55:20.998Z,4.90
2018-07-15T07:57:55.461Z,4.67
2018-07-15T08:00:25.564Z,4.40
2018-07-15T08:02:54.911Z,4.47
2018-07-15T08:05:23.761Z,3.50
2018-07-15T08:07:52.493Z,3.27
2018-07-15T08:10:21.549Z,4.20
2018-07-15T08:12:50.742Z,3.60
2018-07-15T08:15:19.919Z,4.40
2018-07-15T08:17:49.625Z,3.20
2018-07-15T08:20:27.145Z,3.00
2018-07-15T08:22:58.413Z,3.80
2018-07-15T08:25:37.177Z,2.90
2018-07-15T08:28:07.884Z,2.77
2018-07-15T08:30:48.440Z,3.57
2018-07-15T08:33:19.343Z,2.80
2018-07-15T08:35:48.268Z,2.63
2018-07-15T08:38:29.279Z,3.00
2018-07-15T08:41:04.389Z,3.33
2018-07-15T08:43:33.911Z,3.90
2018-07-15T08:46:03.044Z,3.83
2018-07-15T08:48:32.921Z,4.77
2018-07-15T08:51:01.876Z,4.63
2018-07-15T08:53:34.928Z,3.57
2018-07-15T08:56:04.806Z,4.20
2018-07-15T08:58:34.056Z,4.17
2018-07-15T09:01:03.264Z,3.50
2018-07-15T09:03:33.161Z,3.20
2018-07-15T09:06:02.321Z,2.70
2018-07-15T09:08:31.444Z,3.10
2018-07-15T09:11:07.735Z,3.23
2018-07-15T09:13:41.209Z,2.77
2018-07-15T09:16:10.675Z,3.43
2018-07-15T09:18:40.680Z,2.60
2018-07-15T09:21:09.802Z,1.90
2018-07-15T09:23:38.667Z,2.30
2018-07-15T09:26:09.161Z,1.93
2018-07-15T09:28:38.345Z,2.20
2018-07-15T09:31:07.485Z,2.00
2018-07-15T09:33:37.124Z,2.60
2018-07-15T09:36:06.257Z,2.33
2018-07-15T09:38:35.441Z,2.13
2018-07-15T09:41:04.934Z,3.00
2018-07-15T09:43:33.687Z,1.90
2018-07-15T09:46:03.188Z,2.13
2018-07-15T09:48:32.080Z,1.70
2018-07-15T09:51:00.866Z,2.00
2018-07-15T09:53:29.892Z,1.60
2018-07-15T09:55:58.635Z,2.40
2018-07-15T09:58:30.796Z,2.17
2018-07-15T10:00:59.503Z,1.90
2018-07-15T10:03:28.255Z,1.70
2018-07-15T10:05:56.848Z,1.73
2018-07-15T10:08:25.483Z,1.97
2018-07-15T10:10:54.088Z,1.30
2018-07-15T10:13:22.713Z,1.90
2018-07-15T10:15:51.985Z,1.57
2018-07-15T10:18:20.646Z,1.70
2018-07-15T10:20:49.237Z,2.23
2018-07-15T10:23:18.514Z,2.03
2018-07-15T10:25:48.611Z,2.60
2018-07-15T10:28:17.373Z,1.87
2018-07-15T10:30:46.120Z,1.60
2018-07-15T10:33:14.976Z,1.83
2018-07-15T10:35:43.675Z,1.67
2018-07-15T10:38:12.800Z,1.47
2018-07-15T10:40:41.509Z,1.40
2018-07-15T10:43:11.212Z,1.60
2018-07-15T10:45:40.548Z,1.40
2018-07-15T10:48:09.419Z,1.30
2018-07-15T10:50:38.344Z,2.20
2018-07-15T10:53:07.376Z,1.80
2018-07-15T10:55:36.878Z,1.53
2018-07-15T10:58:05.941Z,1.90
2018-07-15T11:00:35.816Z,1.87
2018-07-15T11:03:06.062Z,2.40
2018-07-15T11:05:35.222Z,2.17
2018-07-15T11:08:04.286Z,2.03
2018-07-15T11:10:34.684Z,2.07
2018-07-15T11:13:05.217Z,1.83
2018-07-15T11:15:34.300Z,1.77
2018-07-15T11:18:05.699Z,1.93
2018-07-15T11:20:36.426Z,1.80
2018-07-15T11:23:05.926Z,2.70
2018-07-15T11:25:35.377Z,1.97
2018-07-15T11:28:04.359Z,1.83
2018-07-15T11:30:33.375Z,1.97
2018-07-15T11:33:02.351Z,1.97
2018-07-15T11:35:31.363Z,2.10
2018-07-15T11:38:01.929Z,2.07
2018-07-15T11:40:30.934Z,1.40
2018-07-15T11:42:59.960Z,2.13
2018-07-15T11:45:29.842Z,1.83
2018-07-15T11:47:58.855Z,2.20
2018-07-15T11:50:27.856Z,2.00
2018-07-15T11:52:57.113Z,2.13
2018-07-15T11:55:26.107Z,1.80
2018-07-15T11:57:55.111Z,3.63
2018-07-15T12:00:24.623Z,2.80
2018-07-15T12:02:53.734Z,1.90
2018-07-15T12:05:23.366Z,2.20
2018-07-15T12:07:52.359Z,2.00
2018-07-15T12:10:21.362Z,2.27
2018-07-15T12:12:50.362Z,2.00
2018-07-15T12:15:19.917Z,1.90
2018-07-15T12:17:48.915Z,1.80
2018-07-15T12:20:17.921Z,1.90
2018-07-15T12:22:46.879Z,1.87
2018-07-15T12:25:15.882Z,1.87
2018-07-15T12:27:44.895Z,1.97
2018-07-15T12:30:13.920Z,2.10
2018-07-15T12:32:48.015Z,2.60
2018-07-15T12:35:19.590Z,2.00
2018-07-15T12:37:48.575Z,1.73
2018-07-15T12:40:17.723Z,2.23
2018-07-15T12:42:46.732Z,2.40
2018-07-15T12:45:16.707Z,2.20
2018-07-15T12:47:49.812Z,2.53
2018-07-15T12:50:23.043Z,2.53
2018-07-15T12:52:54.998Z,2.30
2018-07-15T12:55:24.033Z,2.00
2018-07-15T12:57:53.135Z,1.93
2018-07-15T13:00:22.899Z,1.70
2018-07-15T13:02:51.905Z,2.10
2018-07-15T13:05:20.909Z,1.93
2018-07-15T13:07:49.892Z,2.20
2018-07-15T13:10:18.892Z,1.60
2018-07-15T13:12:47.948Z,1.60
2018-07-15T13:15:17.012Z,1.83
2018-07-15T13:17:46.001Z,1.57
2018-07-15T13:20:15.000Z,2.10
2018-07-15T13:22:44.016Z,1.60
2018-07-15T13:25:14.266Z,1.80
2018-07-15T13:27:58.007Z,2.00
2018-07-15T13:30:27.009Z,2.60
2018-07-15T13:32:55.755Z,2.07
2018-07-15T13:35:24.772Z,2.33
2018-07-15T13:37:54.399Z,1.80
2018-07-15T13:40:23.467Z,1.47
2018-07-15T13:42:52.535Z,2.00
2018-07-15T13:45:21.531Z,1.60
2018-07-15T13:47:50.509Z,1.87
2018-07-15T13:50:20.722Z,1.70
2018-07-15T13:52:49.719Z,1.80
2018-07-15T13:55:18.697Z,1.80
2018-07-15T13:57:47.666Z,1.70
2018-07-15T14:00:16.723Z,1.60
2018-07-15T14:02:46.433Z,1.63
2018-07-15T14:05:15.461Z,1.80
2018-07-15T14:07:44.491Z,1.90
2018-07-15T14:10:13.476Z,1.63
2018-07-15T14:12:42.474Z,2.00
2018-07-15T14:15:11.554Z,1.90
2018-07-15T14:17:40.623Z,1.70
2018-07-15T14:20:10.027Z,2.10
2018-07-15T14:22:39.051Z,2.30
2018-07-15T14:25:09.079Z,1.93
2018-07-15T14:27:38.845Z,1.80
2018-07-15T14:30:08.163Z,2.23
2018-07-15T14:32:37.697Z,2.20
2018-07-15T14:35:07.102Z,1.87
2018-07-15T14:37:36.087Z,1.87
2018-07-15T14:40:05.275Z,1.70
2018-07-15T14:42:34.297Z,1.60
2018-07-15T14:45:04.161Z,1.60
2018-07-15T14:47:33.638Z,1.83
2018-07-15T14:50:03.983Z,1.93
2018-07-15T14:52:33.001Z,1.50
2018-07-15T14:55:01.718Z,1.40
2018-07-15T14:57:30.656Z,1.53
2018-07-15T14:59:59.647Z,1.40
2018-07-15T15:02:28.658Z,1.60
2018-07-15T15:04:58.562Z,1.73
2018-07-15T15:07:27.571Z,1.70
2018-07-15T15:09:57.826Z,1.90
2018-07-15T15:12:26.863Z,1.67
2018-07-15T15:14:55.885Z,1.50
2018-07-15T15:17:26.749Z,1.30
2018-07-15T15:19:55.742Z,1.60
2018-07-15T15:22:24.823Z,1.30
2018-07-15T15:24:53.888Z,1.50
2018-07-15T15:27:25.484Z,1.50
2018-07-15T15:29:54.451Z,1.40
2018-07-15T15:32:24.071Z,1.40
2018-07-15T15:34:53.064Z,1.10
2018-07-15T15:37:23.355Z,1.43
2018-07-15T15:39:52.408Z,1.33
2018-07-15T15:42:22.658Z,1.43
2018-07-15T15:44:52.069Z,1.17
2018-07-15T15:47:21.070Z,1.37
2018-07-15T15:49:50.054Z,1.57
2018-07-15T15:52:19.121Z,1.43
2018-07-15T15:54:48.678Z,1.40
2018-07-15T15:57:17.689Z,1.30
2018-07-15T15:59:46.642Z,1.70
2018-07-15T16:02:15.649Z,1.70
2018-07-15T16:04:45.046Z,1.50
2018-07-15T16:07:14.066Z,1.50
2018-07-15T16:09:43.019Z,2.10
2018-07-15T16:12:12.654Z,1.73
2018-07-15T16:14:42.711Z,1.80
2018-07-15T16:17:11.747Z,1.53
2018-07-15T16:19:41.206Z,3.83
2018-07-15T16:22:09.932Z,2.20
2018-07-15T16:24:38.888Z,1.90
2018-07-15T16:27:07.898Z,1.93
2018-07-15T16:29:36.907Z,1.60
2018-07-15T16:32:05.960Z,1.87
2018-07-15T16:34:34.954Z,1.70
2018-07-15T16:37:03.952Z,1.93
2018-07-15T16:39:32.979Z,2.27
2018-07-15T16:42:01.951Z,1.83
2018-07-15T16:44:31.012Z,2.13
2018-07-15T16:47:00.028Z,2.03
2018-07-15T16:49:29.096Z,2.10
2018-07-15T16:51:58.196Z,1.73
2018-07-15T16:54:27.255Z,1.90
2018-07-15T16:56:56.272Z,1.80
2018-07-15T16:59:27.775Z,1.80
2018-07-15T17:01:56.880Z,2.03
2018-07-15T17:04:25.850Z,1.53
2018-07-15T17:06:55.553Z,1.80
2018-07-15T17:09:25.032Z,2.10
2018-07-15T17:11:54.039Z,2.10
2018-07-15T17:14:23.020Z,1.53
2018-07-15T17:16:52.148Z,1.70
2018-07-15T17:19:21.191Z,2.20
2018-07-15T17:21:50.260Z,2.00
2018-07-15T17:24:20.418Z,1.87
2018-07-15T17:26:49.512Z,1.73
2018-07-15T17:29:18.545Z,2.00
2018-07-15T17:31:47.519Z,1.70
2018-07-15T17:34:16.632Z,1.90
2018-07-15T17:36:45.634Z,1.80
2018-07-15T17:39:15.547Z,1.60
2018-07-15T17:41:45.516Z,1.70
2018-07-15T17:44:14.515Z,1.70
2018-07-15T17:46:43.480Z,2.10
2018-07-15T17:49:12.493Z,2.30
2018-07-15T17:51:41.511Z,2.23
2018-07-15T17:54:10.494Z,1.77
2018-07-15T17:56:39.530Z,2.00
2018-07-15T17:59:08.728Z,2.60
2018-07-15T18:01:38.624Z,2.53
2018-07-15T18:04:07.651Z,2.00
2018-07-15T18:06:37.469Z,2.07
2018-07-15T18:09:06.984Z,2.47
2018-07-15T18:11:35.967Z,2.10
2018-07-15T18:14:05.040Z,2.33
2018-07-15T18:16:34.045Z,2.67
2018-07-15T18:19:03.028Z,2.30
2018-07-15T18:21:32.034Z,2.20
2018-07-15T18:24:01.080Z,2.23
2018-07-15T18:26:30.059Z,2.63
2018-07-15T18:28:59.987Z,2.40
2018-07-15T18:31:28.970Z,2.80
2018-07-15T18:33:58.507Z,2.00
2018-07-15T18:36:27.516Z,2.47
2018-07-15T18:38:56.536Z,2.23
2018-07-15T18:41:25.522Z,2.60
2018-07-15T18:43:54.558Z,2.47
2018-07-15T18:46:23.611Z,2.30
2018-07-15T18:48:53.071Z,2.00
2018-07-15T18:51:22.066Z,2.80
2018-07-15T18:53:51.180Z,2.00
2018-07-15T18:56:21.303Z,3.17
2018-07-15T18:58:51.055Z,3.03
2018-07-15T19:01:20.084Z,2.87
2018-07-15T19:03:49.083Z,2.47
2018-07-15T19:06:18.072Z,2.50
2018-07-15T19:08:47.203Z,2.87
2018-07-15T19:11:16.183Z,2.33
2018-07-15T19:13:45.236Z,2.40
2018-07-15T19:16:14.246Z,2.23
2018-07-15T19:18:43.347Z,2.40
2018-07-15T19:21:12.354Z,3.10
2018-07-15T19:23:41.746Z,2.40
2018-07-15T19:26:10.780Z,2.90
2018-07-15T19:28:39.796Z,2.27
2018-07-15T19:31:08.789Z,3.30
2018-07-15T19:33:44.485Z,3.10
2018-07-15T19:36:13.431Z,2.57
2018-07-15T19:38:42.420Z,4.10
2018-07-15T19:41:11.441Z,2.60
2018-07-15T19:43:40.553Z,5.10
2018-07-15T19:46:09.536Z,3.73
2018-07-15T19:48:38.540Z,5.07
2018-07-15T19:51:07.531Z,5.30
2018-07-15T19:53:36.579Z,4.60
2018-07-15T19:56:05.588Z,3.03
2018-07-15T19:58:34.695Z,3.00
2018-07-15T20:01:04.326Z,3.80
2018-07-15T20:03:33.328Z,5.70
2018-07-15T20:06:02.323Z,3.57
2018-07-15T20:08:31.315Z,2.83
2018-07-15T20:11:00.350Z,3.27
2018-07-15T20:13:29.339Z,3.67
2018-07-15T20:15:58.439Z,3.27
2018-07-15T20:18:27.433Z,7.17
2018-07-15T20:20:56.479Z,8.93
2018-07-15T20:23:25.492Z,6.17
2018-07-15T20:25:55.084Z,3.70
2018-07-15T20:28:25.867Z,3.70
2018-07-15T20:30:54.961Z,3.30
2018-07-15T20:33:23.983Z,3.20
2018-07-15T20:35:53.048Z,3.70
2018-07-15T20:38:22.023Z,3.17
2018-07-15T20:40:52.419Z,3.30
2018-07-15T20:43:21.411Z,3.50
2018-07-15T20:45:50.435Z,3.40
2018-07-15T20:48:19.419Z,5.13
2018-07-15T20:50:48.518Z,9.60
2018-07-15T20:53:18.306Z,10.00
2018-07-15T20:55:56.587Z,9.40
2018-07-15T20:58:26.318Z,5.90
2018-07-15T21:01:06.035Z,6.50
2018-07-15T21:03:35.044Z,5.40
2018-07-15T21:06:04.056Z,6.27
2018-07-15T21:08:33.095Z,4.90
2018-07-15T21:11:02.275Z,4.33
2018-07-15T21:13:31.272Z,3.87
2018-07-15T21:16:00.339Z,3.80
2018-07-15T21:18:29.339Z,4.00
2018-07-15T21:20:58.336Z,3.50
2018-07-15T21:23:27.333Z,3.03
2018-07-15T21:25:56.512Z,3.07
2018-07-15T21:28:28.249Z,3.70
2018-07-15T21:30:57.260Z,3.03
2018-07-15T21:33:26.252Z,3.07
2018-07-15T21:35:55.280Z,4.80
2018-07-15T21:38:24.279Z,5.20
2018-07-15T21:40:53.362Z,4.20
2018-07-15T21:43:22.350Z,3.50
2018-07-15T21:45:51.355Z,3.43
2018-07-15T21:48:20.439Z,3.50
2018-07-15T21:50:50.298Z,3.67
2018-07-15T21:53:19.690Z,3.23
2018-07-15T21:55:48.692Z,3.30
2018-07-15T21:58:17.724Z,3.20
2018-07-15T22:00:46.743Z,2.73
2018-07-15T22:03:16.484Z,3.60
2018-07-15T22:05:48.071Z,4.00
2018-07-15T22:08:28.491Z,3.17
2018-07-15T22:10:57.504Z,2.90
2018-07-15T22:13:26.503Z,3.80
2018-07-15T22:15:55.222Z,3.00
2018-07-15T22:18:24.127Z,3.33
2018-07-15T22:20:55.599Z,3.30
2018-07-15T22:23:24.599Z,3.30
2018-07-15T22:25:53.608Z,3.60
2018-07-15T22:28:22.646Z,3.30
2018-07-15T22:30:51.651Z,3.57
2018-07-15T22:33:20.647Z,3.30
2018-07-15T22:35:49.649Z,3.50
2018-07-15T22:38:18.641Z,2.93
2018-07-15T22:40:47.681Z,3.20
2018-07-15T22:43:16.689Z,3.40
2018-07-15T22:45:45.678Z,3.23
2018-07-15T22:48:14.710Z,3.43
2018-07-15T22:50:43.736Z,3.20
2018-07-15T22:53:12.788Z,3.40
2018-07-15T22:55:42.551Z,3.57
2018-07-15T22:58:11.563Z,3.33
2018-07-15T23:00:40.544Z,3.40
2018-07-15T23:03:09.544Z,3.33
2018-07-15T23:05:51.828Z,3.50
2018-07-15T23:08:22.676Z,3.03
2018-07-15T23:10:51.699Z,3.10
2018-07-15T23:13:20.865Z,3.00
2018-07-15T23:15:50.769Z,3.50
2018-07-15T23:18:19.836Z,3.13
2018-07-15T23:20:49.500Z,3.03
2018-07-15T23:23:18.804Z,3.07
2018-07-15T23:25:48.562Z,3.67
2018-07-15T23:28:18.007Z,3.40
2018-07-15T23:30:47.035Z,3.20
2018-07-15T23:33:19.746Z,3.67
2018-07-15T23:35:49.411Z,3.50
2018-07-15T23:38:18.428Z,3.40
2018-07-15T23:40:47.428Z,3.00
2018-07-15T23:43:16.446Z,3.23
2018-07-15T23:45:45.510Z,3.20
2018-07-15T23:48:14.957Z,3.33
2018-07-15T23:50:44.399Z,3.27
2018-07-15T23:53:13.853Z,3.63
2018-07-15T23:55:42.855Z,4.03
2018-07-15T23:58:11.877Z,3.30
